sensor_id;sensor_type;location;lat;lon;timestamp;temperature;humidity
20973;DHT22;10645;52.370;13.314;2023-08-21T00:00:09;18.90;99.90
20973;DHT22;10645;52.370;13.314;2023-08-21T00:02:37;18.90;99.90
20973;DHT22;10645;52.370;13.314;2023-08-21T00:05:03;18.90;99.90
20973;DHT22;10645;52.370;13.314;2023-08-21T00:07:29;18.90;99.90
20973;DHT22;10645;52.370;13.314;2023-08-21T00:09:55;18.90;99.90
20973;DHT22;10645;52.370;13.314;2023-08-21T00:12:21;18.90;99.90
20973;DHT22;10645;52.370;13.314;2023-08-21T00:14:47;18.90;99.90
20973;DHT22;10645;52.370;13.314;2023-08-21T00:17:14;19.00;99.90
20973;DHT22;10645;52.370;13.314;2023-08-21T00:19:40;19.00;99.90
20973;DHT22;10645;52.370;13.314;2023-08-21T00:22:06;19.10;99.90
20973;DHT22;10645;52.370;13.314;2023-08-21T00:24:32;19.00;99.90
20973;DHT22;10645;52.370;13.314;2023-08-21T00:26:58;19.00;99.90
20973;DHT22;10645;52.370;13.314;2023-08-21T00:29:25;19.00;99.90
20973;DHT22;10645;52.370;13.314;2023-08-21T00:31:51;19.00;99.90
20973;DHT22;10645;52.370;13.314;2023-08-21T00:34:17;19.00;99.90
20973;DHT22;10645;52.370;13.314;2023-08-21T00:36:43;19.00;99.90
20973;DHT22;10645;52.370;13.314;2023-08-21T00:39:09;18.90;99.90
20973;DHT22;10645;52.370;13.314;2023-08-21T00:41:35;18.90;99.90
20973;DHT22;10645;52.370;13.314;2023-08-21T00:44:01;18.80;99.90
20973;DHT22;10645;52.370;13.314;2023-08-21T00:46:27;18.80;99.90
20973;DHT22;10645;52.370;13.314;2023-08-21T00:48:53;18.70;99.90
20973;DHT22;10645;52.370;13.314;2023-08-21T00:51:20;18.70;99.90
20973;DHT22;10645;52.370;13.314;2023-08-21T00:53:46;18.60;99.90
20973;DHT22;10645;52.370;13.314;2023-08-21T00:56:13;18.60;99.90
20973;DHT22;10645;52.370;13.314;2023-08-21T00:58:39;18.60;99.90
20973;DHT22;10645;52.370;13.314;2023-08-21T01:01:05;18.50;99.90
20973;DHT22;10645;52.370;13.314;2023-08-21T01:03:31;18.50;99.90
20973;DHT22;10645;52.370;13.314;2023-08-21T01:05:57;18.50;99.90
20973;DHT22;10645;52.370;13.314;2023-08-21T01:08:56;18.50;99.90
20973;DHT22;10645;52.370;13.314;2023-08-21T01:14:09;18.50;99.90
20973;DHT22;10645;52.370;13.314;2023-08-21T01:16:39;18.40;99.90
20973;DHT22;10645;52.370;13.314;2023-08-21T01:19:19;18.40;99.90
20973;DHT22;10645;52.370;13.314;2023-08-21T01:21:50;18.50;99.90
20973;DHT22;10645;52.370;13.314;2023-08-21T01:24:19;18.40;99.90
20973;DHT22;10645;52.370;13.314;2023-08-21T01:26:45;18.40;99.90
20973;DHT22;10645;52.370;13.314;2023-08-21T01:29:12;18.40;99.90
20973;DHT22;10645;52.370;13.314;2023-08-21T01:31:40;18.50;99.90
20973;DHT22;10645;52.370;13.314;2023-08-21T01:34:11;18.50;99.90
20973;DHT22;10645;52.370;13.314;2023-08-21T01:36:39;18.60;99.90
20973;DHT22;10645;52.370;13.314;2023-08-21T01:39:07;18.70;99.90
20973;DHT22;10645;52.370;13.314;2023-08-21T01:41:33;18.80;99.90
20973;DHT22;10645;52.370;13.314;2023-08-21T01:43:59;18.80;99.90
20973;DHT22;10645;52.370;13.314;2023-08-21T01:46:26;18.90;99.90
20973;DHT22;10645;52.370;13.314;2023-08-21T01:48:52;18.90;99.90
20973;DHT22;10645;52.370;13.314;2023-08-21T01:51:19;19.00;99.90
20973;DHT22;10645;52.370;13.314;2023-08-21T01:53:46;19.00;99.90
20973;DHT22;10645;52.370;13.314;2023-08-21T01:56:12;19.10;99.90
20973;DHT22;10645;52.370;13.314;2023-08-21T01:58:39;19.10;99.90
20973;DHT22;10645;52.370;13.314;2023-08-21T02:01:05;19.10;99.90
20973;DHT22;10645;52.370;13.314;2023-08-21T02:03:31;19.10;99.90
20973;DHT22;10645;52.370;13.314;2023-08-21T02:05:57;19.10;99.90
20973;DHT22;10645;52.370;13.314;2023-08-21T02:08:32;19.10;99.90
20973;DHT22;10645;52.370;13.314;2023-08-21T02:10:58;19.10;99.90
20973;DHT22;10645;52.370;13.314;2023-08-21T02:13:25;19.10;99.90
20973;DHT22;10645;52.370;13.314;2023-08-21T02:15:51;19.10;99.90
20973;DHT22;10645;52.370;13.314;2023-08-21T02:18:17;19.20;99.90
20973;DHT22;10645;52.370;13.314;2023-08-21T02:20:43;19.20;99.90
20973;DHT22;10645;52.370;13.314;2023-08-21T02:23:09;19.10;99.90
20973;DHT22;10645;52.370;13.314;2023-08-21T02:25:35;19.10;99.90
20973;DHT22;10645;52.370;13.314;2023-08-21T02:28:02;19.10;99.90
20973;DHT22;10645;52.370;13.314;2023-08-21T02:30:29;19.10;99.90
20973;DHT22;10645;52.370;13.314;2023-08-21T02:32:57;19.10;99.90
20973;DHT22;10645;52.370;13.314;2023-08-21T02:35:23;19.20;99.90
20973;DHT22;10645;52.370;13.314;2023-08-21T02:37:49;19.10;99.90
20973;DHT22;10645;52.370;13.314;2023-08-21T02:40:16;19.20;99.90
20973;DHT22;10645;52.370;13.314;2023-08-21T02:42:42;19.20;99.90
20973;DHT22;10645;52.370;13.314;2023-08-21T02:45:08;19.20;99.90
20973;DHT22;10645;52.370;13.314;2023-08-21T02:47:38;19.20;99.90
20973;DHT22;10645;52.370;13.314;2023-08-21T02:50:05;19.20;99.90
20973;DHT22;10645;52.370;13.314;2023-08-21T02:52:32;19.20;99.90
20973;DHT22;10645;52.370;13.314;2023-08-21T02:54:59;19.20;99.90
20973;DHT22;10645;52.370;13.314;2023-08-21T02:57:26;19.20;99.90
20973;DHT22;10645;52.370;13.314;2023-08-21T02:59:53;19.20;99.90
20973;DHT22;10645;52.370;13.314;2023-08-21T03:02:20;19.20;99.90
20973;DHT22;10645;52.370;13.314;2023-08-21T03:04:47;19.20;99.90
20973;DHT22;10645;52.370;13.314;2023-08-21T03:07:14;19.20;99.90
20973;DHT22;10645;52.370;13.314;2023-08-21T03:09:40;19.20;99.90
20973;DHT22;10645;52.370;13.314;2023-08-21T03:12:07;19.20;99.90
20973;DHT22;10645;52.370;13.314;2023-08-21T03:14:34;19.20;99.90
20973;DHT22;10645;52.370;13.314;2023-08-21T03:17:00;19.30;99.90
20973;DHT22;10645;52.370;13.314;2023-08-21T03:19:26;19.30;99.90
20973;DHT22;10645;52.370;13.314;2023-08-21T03:21:52;19.30;99.90
20973;DHT22;10645;52.370;13.314;2023-08-21T03:24:19;19.30;99.90
20973;DHT22;10645;52.370;13.314;2023-08-21T03:26:46;19.30;99.90
20973;DHT22;10645;52.370;13.314;2023-08-21T03:29:12;19.30;99.90
20973;DHT22;10645;52.370;13.314;2023-08-21T03:31:38;19.20;99.90
20973;DHT22;10645;52.370;13.314;2023-08-21T03:34:06;19.20;99.90
20973;DHT22;10645;52.370;13.314;2023-08-21T03:36:32;19.20;99.90
20973;DHT22;10645;52.370;13.314;2023-08-21T03:39:01;19.20;99.90
20973;DHT22;10645;52.370;13.314;2023-08-21T03:41:28;19.20;99.90
20973;DHT22;10645;52.370;13.314;2023-08-21T03:43:54;19.20;99.90
20973;DHT22;10645;52.370;13.314;2023-08-21T03:46:20;19.20;99.90
20973;DHT22;10645;52.370;13.314;2023-08-21T03:48:46;19.20;99.90
20973;DHT22;10645;52.370;13.314;2023-08-21T03:51:12;19.20;99.90
20973;DHT22;10645;52.370;13.314;2023-08-21T03:53:38;19.20;99.90
20973;DHT22;10645;52.370;13.314;2023-08-21T03:56:05;19.20;99.90
20973;DHT22;10645;52.370;13.314;2023-08-21T03:58:32;19.20;99.90
20973;DHT22;10645;52.370;13.314;2023-08-21T04:00:58;19.20;99.90
20973;DHT22;10645;52.370;13.314;2023-08-21T04:03:24;19.20;99.90
20973;DHT22;10645;52.370;13.314;2023-08-21T04:05:53;19.20;99.90
20973;DHT22;10645;52.370;13.314;2023-08-21T04:08:19;19.20;99.90
20973;DHT22;10645;52.370;13.314;2023-08-21T04:10:46;19.20;99.90
20973;DHT22;10645;52.370;13.314;2023-08-21T04:13:12;19.30;99.90
20973;DHT22;10645;52.370;13.314;2023-08-21T04:15:38;19.30;99.90
20973;DHT22;10645;52.370;13.314;2023-08-21T04:18:04;19.30;99.90
20973;DHT22;10645;52.370;13.314;2023-08-21T04:20:30;19.30;99.90
20973;DHT22;10645;52.370;13.314;2023-08-21T04:22:57;19.30;99.90
20973;DHT22;10645;52.370;13.314;2023-08-21T04:25:23;19.40;99.90
20973;DHT22;10645;52.370;13.314;2023-08-21T04:27:49;19.40;99.90
20973;DHT22;10645;52.370;13.314;2023-08-21T04:30:15;19.40;99.90
20973;DHT22;10645;52.370;13.314;2023-08-21T04:32:41;19.40;99.90
20973;DHT22;10645;52.370;13.314;2023-08-21T04:35:08;19.40;99.90
20973;DHT22;10645;52.370;13.314;2023-08-21T04:37:37;19.50;99.90
20973;DHT22;10645;52.370;13.314;2023-08-21T04:40:05;19.50;99.90
20973;DHT22;10645;52.370;13.314;2023-08-21T04:42:31;19.50;99.90
20973;DHT22;10645;52.370;13.314;2023-08-21T04:44:57;19.60;99.90
20973;DHT22;10645;52.370;13.314;2023-08-21T04:47:25;19.70;99.90
20973;DHT22;10645;52.370;13.314;2023-08-21T04:49:57;19.60;99.90
20973;DHT22;10645;52.370;13.314;2023-08-21T04:52:24;19.70;99.90
20973;DHT22;10645;52.370;13.314;2023-08-21T04:54:51;19.80;99.90
20973;DHT22;10645;52.370;13.314;2023-08-21T04:57:17;19.80;99.90
20973;DHT22;10645;52.370;13.314;2023-08-21T04:59:44;19.90;99.90
20973;DHT22;10645;52.370;13.314;2023-08-21T05:02:10;19.90;99.90
20973;DHT22;10645;52.370;13.314;2023-08-21T05:04:38;20.00;99.90
20973;DHT22;10645;52.370;13.314;2023-08-21T05:07:05;20.00;99.90
20973;DHT22;10645;52.370;13.314;2023-08-21T05:09:31;20.10;99.90
20973;DHT22;10645;52.370;13.314;2023-08-21T05:11:58;20.10;99.90
20973;DHT22;10645;52.370;13.314;2023-08-21T05:14:25;20.10;99.90
20973;DHT22;10645;52.370;13.314;2023-08-21T05:16:51;20.20;99.90
20973;DHT22;10645;52.370;13.314;2023-08-21T05:19:18;20.30;99.90
20973;DHT22;10645;52.370;13.314;2023-08-21T05:21:45;20.40;99.90
20973;DHT22;10645;52.370;13.314;2023-08-21T05:24:11;20.40;99.90
20973;DHT22;10645;52.370;13.314;2023-08-21T05:26:40;20.50;99.90
20973;DHT22;10645;52.370;13.314;2023-08-21T05:29:06;20.60;99.90
20973;DHT22;10645;52.370;13.314;2023-08-21T05:31:32;20.60;99.90
20973;DHT22;10645;52.370;13.314;2023-08-21T05:33:59;20.70;99.90
20973;DHT22;10645;52.370;13.314;2023-08-21T05:36:25;20.70;99.90
20973;DHT22;10645;52.370;13.314;2023-08-21T05:38:52;20.80;99.90
20973;DHT22;10645;52.370;13.314;2023-08-21T05:41:18;20.80;99.90
20973;DHT22;10645;52.370;13.314;2023-08-21T05:43:45;20.90;99.90
20973;DHT22;10645;52.370;13.314;2023-08-21T05:46:13;21.00;99.90
20973;DHT22;10645;52.370;13.314;2023-08-21T05:48:39;21.10;99.90
20973;DHT22;10645;52.370;13.314;2023-08-21T05:51:06;21.20;99.90
20973;DHT22;10645;52.370;13.314;2023-08-21T05:53:32;21.40;99.90
20973;DHT22;10645;52.370;13.314;2023-08-21T05:55:59;21.40;99.90
20973;DHT22;10645;52.370;13.314;2023-08-21T05:58:25;21.60;99.90
20973;DHT22;10645;52.370;13.314;2023-08-21T06:00:56;21.60;99.90
20973;DHT22;10645;52.370;13.314;2023-08-21T06:03:22;21.70;99.90
20973;DHT22;10645;52.370;13.314;2023-08-21T06:06:03;21.80;99.90
20973;DHT22;10645;52.370;13.314;2023-08-21T06:08:29;22.00;99.90
20973;DHT22;10645;52.370;13.314;2023-08-21T06:10:55;22.00;99.90
20973;DHT22;10645;52.370;13.314;2023-08-21T06:13:22;22.10;99.90
20973;DHT22;10645;52.370;13.314;2023-08-21T06:15:51;22.20;99.90
20973;DHT22;10645;52.370;13.314;2023-08-21T06:18:18;22.30;99.90
20973;DHT22;10645;52.370;13.314;2023-08-21T06:20:44;22.50;99.90
20973;DHT22;10645;52.370;13.314;2023-08-21T06:23:11;22.70;99.90
20973;DHT22;10645;52.370;13.314;2023-08-21T06:25:37;22.90;99.90
20973;DHT22;10645;52.370;13.314;2023-08-21T06:28:04;22.90;99.90
20973;DHT22;10645;52.370;13.314;2023-08-21T06:30:31;23.00;99.90
20973;DHT22;10645;52.370;13.314;2023-08-21T06:32:58;23.00;99.90
20973;DHT22;10645;52.370;13.314;2023-08-21T06:35:25;23.00;99.90
20973;DHT22;10645;52.370;13.314;2023-08-21T06:37:52;23.20;99.90
20973;DHT22;10645;52.370;13.314;2023-08-21T06:40:20;23.30;99.90
20973;DHT22;10645;52.370;13.314;2023-08-21T06:42:47;23.40;99.90
20973;DHT22;10645;52.370;13.314;2023-08-21T06:45:16;23.50;99.90
20973;DHT22;10645;52.370;13.314;2023-08-21T06:47:44;23.60;99.90
20973;DHT22;10645;52.370;13.314;2023-08-21T06:50:10;23.60;99.90
20973;DHT22;10645;52.370;13.314;2023-08-21T06:52:36;23.70;99.90
20973;DHT22;10645;52.370;13.314;2023-08-21T06:55:02;23.80;99.90
20973;DHT22;10645;52.370;13.314;2023-08-21T06:57:28;23.90;99.90
20973;DHT22;10645;52.370;13.314;2023-08-21T06:59:54;24.00;99.90
20973;DHT22;10645;52.370;13.314;2023-08-21T07:02:20;24.00;99.90
20973;DHT22;10645;52.370;13.314;2023-08-21T07:04:46;24.00;99.90
20973;DHT22;10645;52.370;13.314;2023-08-21T07:07:12;24.00;99.90
20973;DHT22;10645;52.370;13.314;2023-08-21T07:09:39;24.00;99.90
20973;DHT22;10645;52.370;13.314;2023-08-21T07:12:05;24.20;99.90
20973;DHT22;10645;52.370;13.314;2023-08-21T07:14:31;24.30;99.90
20973;DHT22;10645;52.370;13.314;2023-08-21T07:16:57;24.50;99.90
20973;DHT22;10645;52.370;13.314;2023-08-21T07:19:23;24.50;99.90
20973;DHT22;10645;52.370;13.314;2023-08-21T07:21:50;24.40;99.90
20973;DHT22;10645;52.370;13.314;2023-08-21T07:24:16;24.60;99.90
20973;DHT22;10645;52.370;13.314;2023-08-21T07:26:42;24.60;99.90
20973;DHT22;10645;52.370;13.314;2023-08-21T07:29:08;24.70;99.90
20973;DHT22;10645;52.370;13.314;2023-08-21T07:31:34;24.70;99.90
20973;DHT22;10645;52.370;13.314;2023-08-21T07:34:00;24.60;99.90
20973;DHT22;10645;52.370;13.314;2023-08-21T07:36:26;24.60;99.90
20973;DHT22;10645;52.370;13.314;2023-08-21T07:38:52;24.60;99.90
20973;DHT22;10645;52.370;13.314;2023-08-21T07:41:18;24.60;99.90
20973;DHT22;10645;52.370;13.314;2023-08-21T07:43:45;24.40;99.90
20973;DHT22;10645;52.370;13.314;2023-08-21T07:46:12;24.40;99.90
20973;DHT22;10645;52.370;13.314;2023-08-21T07:48:42;24.50;99.90
20973;DHT22;10645;52.370;13.314;2023-08-21T07:51:08;24.60;99.90
20973;DHT22;10645;52.370;13.314;2023-08-21T07:53:34;24.70;99.90
20973;DHT22;10645;52.370;13.314;2023-08-21T07:56:02;24.80;99.90
20973;DHT22;10645;52.370;13.314;2023-08-21T07:58:30;24.80;99.90
20973;DHT22;10645;52.370;13.314;2023-08-21T08:00:56;24.90;99.90
20973;DHT22;10645;52.370;13.314;2023-08-21T08:03:22;24.80;99.90
20973;DHT22;10645;52.370;13.314;2023-08-21T08:05:48;25.00;99.90
20973;DHT22;10645;52.370;13.314;2023-08-21T08:08:17;25.00;99.90
20973;DHT22;10645;52.370;13.314;2023-08-21T08:10:43;24.90;99.90
20973;DHT22;10645;52.370;13.314;2023-08-21T08:13:10;24.80;99.90
20973;DHT22;10645;52.370;13.314;2023-08-21T08:15:36;24.70;99.90
20973;DHT22;10645;52.370;13.314;2023-08-21T08:18:03;24.80;99.90
20973;DHT22;10645;52.370;13.314;2023-08-21T08:20:30;24.80;99.90
20973;DHT22;10645;52.370;13.314;2023-08-21T08:22:57;24.90;99.90
20973;DHT22;10645;52.370;13.314;2023-08-21T08:25:23;25.00;99.90
20973;DHT22;10645;52.370;13.314;2023-08-21T08:27:49;24.90;99.90
20973;DHT22;10645;52.370;13.314;2023-08-21T08:30:16;24.90;99.90
20973;DHT22;10645;52.370;13.314;2023-08-21T08:32:44;24.80;99.90
20973;DHT22;10645;52.370;13.314;2023-08-21T08:35:13;24.60;99.90
20973;DHT22;10645;52.370;13.314;2023-08-21T08:37:42;24.60;99.90
20973;DHT22;10645;52.370;13.314;2023-08-21T08:40:10;24.40;99.90
20973;DHT22;10645;52.370;13.314;2023-08-21T08:42:37;24.40;99.90
20973;DHT22;10645;52.370;13.314;2023-08-21T08:45:04;24.30;99.90
20973;DHT22;10645;52.370;13.314;2023-08-21T08:47:32;24.30;99.90
20973;DHT22;10645;52.370;13.314;2023-08-21T08:49:59;24.40;99.90
20973;DHT22;10645;52.370;13.314;2023-08-21T08:52:27;24.60;99.90
20973;DHT22;10645;52.370;13.314;2023-08-21T08:54:55;24.80;99.90
20973;DHT22;10645;52.370;13.314;2023-08-21T08:57:22;24.80;99.90
20973;DHT22;10645;52.370;13.314;2023-08-21T08:59:49;24.90;99.90
20973;DHT22;10645;52.370;13.314;2023-08-21T09:02:15;24.90;99.90
20973;DHT22;10645;52.370;13.314;2023-08-21T09:04:41;24.90;99.90
20973;DHT22;10645;52.370;13.314;2023-08-21T09:07:08;25.20;99.90
20973;DHT22;10645;52.370;13.314;2023-08-21T09:09:44;25.40;99.90
20973;DHT22;10645;52.370;13.314;2023-08-21T09:12:12;25.60;99.90
20973;DHT22;10645;52.370;13.314;2023-08-21T09:14:42;25.70;99.90
20973;DHT22;10645;52.370;13.314;2023-08-21T09:17:08;26.00;99.90
20973;DHT22;10645;52.370;13.314;2023-08-21T09:19:34;26.40;99.90
20973;DHT22;10645;52.370;13.314;2023-08-21T09:22:09;26.70;99.90
20973;DHT22;10645;52.370;13.314;2023-08-21T09:24:36;26.90;99.90
20973;DHT22;10645;52.370;13.314;2023-08-21T09:27:02;26.70;99.90
20973;DHT22;10645;52.370;13.314;2023-08-21T09:29:39;26.80;99.90
20973;DHT22;10645;52.370;13.314;2023-08-21T09:32:08;26.90;99.90
20973;DHT22;10645;52.370;13.314;2023-08-21T09:34:35;27.10;99.90
20973;DHT22;10645;52.370;13.314;2023-08-21T09:37:05;27.10;99.90
20973;DHT22;10645;52.370;13.314;2023-08-21T09:39:33;27.20;99.90
20973;DHT22;10645;52.370;13.314;2023-08-21T09:41:59;27.00;98.90
20973;DHT22;10645;52.370;13.314;2023-08-21T09:44:26;27.10;99.10
20973;DHT22;10645;52.370;13.314;2023-08-21T09:46:53;27.20;99.40
20973;DHT22;10645;52.370;13.314;2023-08-21T09:49:19;27.30;98.90
20973;DHT22;10645;52.370;13.314;2023-08-21T09:51:46;27.30;98.30
20973;DHT22;10645;52.370;13.314;2023-08-21T09:54:13;27.20;98.30
20973;DHT22;10645;52.370;13.314;2023-08-21T09:56:40;27.20;98.70
20973;DHT22;10645;52.370;13.314;2023-08-21T09:59:07;27.10;98.40
20973;DHT22;10645;52.370;13.314;2023-08-21T10:01:34;27.00;97.40
20973;DHT22;10645;52.370;13.314;2023-08-21T10:04:02;27.10;96.50
20973;DHT22;10645;52.370;13.314;2023-08-21T10:06:30;27.50;96.80
20973;DHT22;10645;52.370;13.314;2023-08-21T10:08:57;27.50;97.90
20973;DHT22;10645;52.370;13.314;2023-08-21T10:11:24;27.80;97.40
20973;DHT22;10645;52.370;13.314;2023-08-21T10:13:51;27.60;96.10
20973;DHT22;10645;52.370;13.314;2023-08-21T10:16:18;27.80;97.80
20973;DHT22;10645;52.370;13.314;2023-08-21T10:18:47;28.10;96.30
20973;DHT22;10645;52.370;13.314;2023-08-21T10:21:21;28.10;96.30
20973;DHT22;10645;52.370;13.314;2023-08-21T10:23:49;28.30;96.00
20973;DHT22;10645;52.370;13.314;2023-08-21T10:26:19;28.10;95.70
20973;DHT22;10645;52.370;13.314;2023-08-21T10:29:02;28.10;96.30
20973;DHT22;10645;52.370;13.314;2023-08-21T10:31:39;27.70;95.70
20973;DHT22;10645;52.370;13.314;2023-08-21T10:34:07;27.60;95.60
20973;DHT22;10645;52.370;13.314;2023-08-21T10:39:25;27.20;95.80
20973;DHT22;10645;52.370;13.314;2023-08-21T10:42:05;27.00;96.10
20973;DHT22;10645;52.370;13.314;2023-08-21T10:47:18;27.40;95.80
20973;DHT22;10645;52.370;13.314;2023-08-21T10:49:46;27.60;96.60
20973;DHT22;10645;52.370;13.314;2023-08-21T10:52:14;28.00;98.30
20973;DHT22;10645;52.370;13.314;2023-08-21T10:54:45;28.00;96.50
20973;DHT22;10645;52.370;13.314;2023-08-21T10:57:12;27.80;94.70
20973;DHT22;10645;52.370;13.314;2023-08-21T10:59:38;27.60;95.80
20973;DHT22;10645;52.370;13.314;2023-08-21T11:02:05;27.80;95.30
20973;DHT22;10645;52.370;13.314;2023-08-21T11:04:40;28.10;96.50
20973;DHT22;10645;52.370;13.314;2023-08-21T11:07:07;28.30;95.00
20973;DHT22;10645;52.370;13.314;2023-08-21T11:09:36;28.80;95.00
20973;DHT22;10645;52.370;13.314;2023-08-21T11:12:09;29.30;93.30
20973;DHT22;10645;52.370;13.314;2023-08-21T11:14:35;29.50;94.40
20973;DHT22;10645;52.370;13.314;2023-08-21T11:17:02;29.30;92.60
20973;DHT22;10645;52.370;13.314;2023-08-21T11:19:33;29.00;94.50
20973;DHT22;10645;52.370;13.314;2023-08-21T11:21:59;28.80;93.70
20973;DHT22;10645;52.370;13.314;2023-08-21T11:24:31;28.90;93.70
20973;DHT22;10645;52.370;13.314;2023-08-21T11:27:08;28.90;94.70
20973;DHT22;10645;52.370;13.314;2023-08-21T11:29:42;28.80;94.90
20973;DHT22;10645;52.370;13.314;2023-08-21T11:32:16;28.90;94.20
20973;DHT22;10645;52.370;13.314;2023-08-21T11:34:53;29.00;94.10
20973;DHT22;10645;52.370;13.314;2023-08-21T11:37:21;28.90;93.40
20973;DHT22;10645;52.370;13.314;2023-08-21T11:39:55;29.00;94.30
20973;DHT22;10645;52.370;13.314;2023-08-21T11:42:28;29.00;94.00
20973;DHT22;10645;52.370;13.314;2023-08-21T11:44:54;29.30;92.60
20973;DHT22;10645;52.370;13.314;2023-08-21T11:47:22;29.50;93.80
20973;DHT22;10645;52.370;13.314;2023-08-21T11:49:49;29.90;94.40
20973;DHT22;10645;52.370;13.314;2023-08-21T11:52:20;30.10;92.40
20973;DHT22;10645;52.370;13.314;2023-08-21T11:54:51;30.20;93.90
20973;DHT22;10645;52.370;13.314;2023-08-21T11:57:18;29.60;92.70
20973;DHT22;10645;52.370;13.314;2023-08-21T11:59:54;29.40;95.70
20973;DHT22;10645;52.370;13.314;2023-08-21T12:02:25;29.10;92.90
20973;DHT22;10645;52.370;13.314;2023-08-21T12:05:04;29.20;90.70
20973;DHT22;10645;52.370;13.314;2023-08-21T12:07:32;29.40;90.40
20973;DHT22;10645;52.370;13.314;2023-08-21T12:09:58;29.50;92.40
20973;DHT22;10645;52.370;13.314;2023-08-21T12:12:25;30.00;89.30
20973;DHT22;10645;52.370;13.314;2023-08-21T12:14:51;29.90;89.20
20973;DHT22;10645;52.370;13.314;2023-08-21T12:17:17;30.00;89.30
20973;DHT22;10645;52.370;13.314;2023-08-21T12:19:43;30.00;89.20
20973;DHT22;10645;52.370;13.314;2023-08-21T12:22:09;30.40;92.10
20973;DHT22;10645;52.370;13.314;2023-08-21T12:24:35;30.50;92.10
20973;DHT22;10645;52.370;13.314;2023-08-21T12:27:03;29.90;90.00
20973;DHT22;10645;52.370;13.314;2023-08-21T12:29:30;29.20;91.30
20973;DHT22;10645;52.370;13.314;2023-08-21T12:31:56;29.40;90.90
20973;DHT22;10645;52.370;13.314;2023-08-21T12:34:22;29.40;91.20
20973;DHT22;10645;52.370;13.314;2023-08-21T12:36:50;29.10;90.70
20973;DHT22;10645;52.370;13.314;2023-08-21T12:39:16;28.80;91.70
20973;DHT22;10645;52.370;13.314;2023-08-21T12:41:42;28.70;90.80
20973;DHT22;10645;52.370;13.314;2023-08-21T12:44:09;28.70;91.60
20973;DHT22;10645;52.370;13.314;2023-08-21T12:46:35;28.70;92.30
20973;DHT22;10645;52.370;13.314;2023-08-21T12:49:02;28.80;91.30
20973;DHT22;10645;52.370;13.314;2023-08-21T12:51:28;28.80;92.40
20973;DHT22;10645;52.370;13.314;2023-08-21T12:53:55;28.60;92.20
20973;DHT22;10645;52.370;13.314;2023-08-21T12:56:21;28.70;92.50
20973;DHT22;10645;52.370;13.314;2023-08-21T12:58:48;28.50;91.60
20973;DHT22;10645;52.370;13.314;2023-08-21T13:01:14;28.60;91.30
20973;DHT22;10645;52.370;13.314;2023-08-21T13:03:47;28.70;91.60
20973;DHT22;10645;52.370;13.314;2023-08-21T13:06:13;28.80;91.00
20973;DHT22;10645;52.370;13.314;2023-08-21T13:08:40;28.70;92.60
20973;DHT22;10645;52.370;13.314;2023-08-21T13:11:06;28.60;91.10
20973;DHT22;10645;52.370;13.314;2023-08-21T13:13:33;28.80;93.30
20973;DHT22;10645;52.370;13.314;2023-08-21T13:15:59;29.00;93.80
20973;DHT22;10645;52.370;13.314;2023-08-21T13:18:26;28.90;91.20
20973;DHT22;10645;52.370;13.314;2023-08-21T13:20:52;29.10;92.90
20973;DHT22;10645;52.370;13.314;2023-08-21T13:23:18;29.10;93.30
20973;DHT22;10645;52.370;13.314;2023-08-21T13:25:45;28.60;91.50
20973;DHT22;10645;52.370;13.314;2023-08-21T13:28:11;28.60;91.50
20973;DHT22;10645;52.370;13.314;2023-08-21T13:30:37;28.50;90.20
20973;DHT22;10645;52.370;13.314;2023-08-21T13:33:04;28.50;91.40
20973;DHT22;10645;52.370;13.314;2023-08-21T13:35:30;28.50;90.40
20973;DHT22;10645;52.370;13.314;2023-08-21T13:37:57;28.50;90.10
20973;DHT22;10645;52.370;13.314;2023-08-21T13:40:24;28.40;90.60
20973;DHT22;10645;52.370;13.314;2023-08-21T13:42:50;28.20;91.20
20973;DHT22;10645;52.370;13.314;2023-08-21T13:45:18;28.20;90.40
20973;DHT22;10645;52.370;13.314;2023-08-21T13:47:46;28.10;91.10
20973;DHT22;10645;52.370;13.314;2023-08-21T13:50:17;28.20;90.50
20973;DHT22;10645;52.370;13.314;2023-08-21T13:52:45;28.20;91.80
20973;DHT22;10645;52.370;13.314;2023-08-21T13:55:13;28.20;90.70
20973;DHT22;10645;52.370;13.314;2023-08-21T13:57:40;28.20;91.10
20973;DHT22;10645;52.370;13.314;2023-08-21T14:00:08;28.00;90.50
20973;DHT22;10645;52.370;13.314;2023-08-21T14:02:38;27.90;90.70
20973;DHT22;10645;52.370;13.314;2023-08-21T14:05:05;27.90;90.70
20973;DHT22;10645;52.370;13.314;2023-08-21T14:07:32;27.80;90.30
20973;DHT22;10645;52.370;13.314;2023-08-21T14:09:58;27.90;92.40
20973;DHT22;10645;52.370;13.314;2023-08-21T14:12:25;27.80;92.50
20973;DHT22;10645;52.370;13.314;2023-08-21T14:14:51;27.90;92.20
20973;DHT22;10645;52.370;13.314;2023-08-21T14:17:17;28.00;92.80
20973;DHT22;10645;52.370;13.314;2023-08-21T14:19:43;27.90;91.70
20973;DHT22;10645;52.370;13.314;2023-08-21T14:22:09;27.90;91.10
20973;DHT22;10645;52.370;13.314;2023-08-21T14:24:35;28.00;92.40
20973;DHT22;10645;52.370;13.314;2023-08-21T14:27:01;28.00;92.60
20973;DHT22;10645;52.370;13.314;2023-08-21T14:29:28;28.00;93.50
20973;DHT22;10645;52.370;13.314;2023-08-21T14:31:54;27.80;93.30
20973;DHT22;10645;52.370;13.314;2023-08-21T14:34:20;27.80;91.50
20973;DHT22;10645;52.370;13.314;2023-08-21T14:36:47;27.50;92.10
20973;DHT22;10645;52.370;13.314;2023-08-21T14:39:14;27.60;92.50
20973;DHT22;10645;52.370;13.314;2023-08-21T14:41:43;27.50;91.30
20973;DHT22;10645;52.370;13.314;2023-08-21T14:44:09;27.40;92.60
20973;DHT22;10645;52.370;13.314;2023-08-21T14:46:36;27.30;92.80
20973;DHT22;10645;52.370;13.314;2023-08-21T14:49:03;27.30;93.80
20973;DHT22;10645;52.370;13.314;2023-08-21T14:51:29;27.30;94.40
20973;DHT22;10645;52.370;13.314;2023-08-21T14:53:55;27.30;92.30
20973;DHT22;10645;52.370;13.314;2023-08-21T14:56:21;27.50;92.90
20973;DHT22;10645;52.370;13.314;2023-08-21T14:58:47;27.50;93.40
20973;DHT22;10645;52.370;13.314;2023-08-21T15:01:14;27.40;92.90
20973;DHT22;10645;52.370;13.314;2023-08-21T15:03:41;27.40;92.00
20973;DHT22;10645;52.370;13.314;2023-08-21T15:06:07;27.50;92.80
20973;DHT22;10645;52.370;13.314;2023-08-21T15:08:33;27.50;91.50
20973;DHT22;10645;52.370;13.314;2023-08-21T15:10:59;27.60;93.40
20973;DHT22;10645;52.370;13.314;2023-08-21T15:13:26;27.70;94.40
20973;DHT22;10645;52.370;13.314;2023-08-21T15:15:52;27.70;94.60
20973;DHT22;10645;52.370;13.314;2023-08-21T15:18:18;27.60;92.20
20973;DHT22;10645;52.370;13.314;2023-08-21T15:20:44;27.50;93.30
20973;DHT22;10645;52.370;13.314;2023-08-21T15:23:10;27.60;93.80